Terminal Aerodrome Forecast
Issued by NWS Pocatello, ID

Home | Current Version | Previous Version | Text Only | Print | Product List | Glossary On
Versions: 1 2 3 4 5 6 7 8 9 10 11 12 13
000
FTUS45 KPIH 302320
TAFBYI
TAF
KBYI 302320Z 0100/0124 08008KT P6SM VCTS SCT040CB BKN080
     FM010200 08008KT P6SM VCSH FEW050 SCT080
     FM010600 VRB05KT P6SM VCSH SCT080 BKN120
     FM011400 21008KT P6SM SCT070 BKN100
     FM012100 29010KT P6SM VCTS SCT070CB=

USA.gov is the U.S. government's official web portal to all federal, state and local government web resources and services.